| time (UTC) | temp C | wind direction | speed KPH | gust KPH | rain 1hr cm | rain 24hr cm | rain mn cm | humidity % | barometer mb |
| 20260509112817 | 21 | 233 | 6.4 | 9.7 | 0.00 | 0.00 | 0.00 | 90 | 1009.8 |
| 20260509112314 | 21 | 248 | 6.4 | 8.0 | 0.00 | 0.00 | 0.00 | 90 | 1009.9 |
| 20260509111811 | 21 | 312 | 1.6 | 4.8 | 0.00 | 0.00 | 0.00 | 90 | 1009.6 |
| 20260509111308 | 21 | 218 | 4.8 | 8.0 | 0.00 | 0.00 | 0.00 | 90 | 1009.5 |
| 20260509110805 | 21 | 192 | 3.2 | 8.0 | 0.00 | 0.00 | 0.00 | 90 | 1009.4 |
| 20260509110301 | 21 | 253 | 4.8 | 4.8 | 0.00 | 0.00 | 0.00 | 90 | 1009.5 |
| 20260509105800 | 21 | 98 | 3.2 | 8.0 | 0.00 | 0.00 | 0.00 | 90 | 1009.4 |
| 20260509105257 | 21 | 215 | 3.2 | 4.8 | 0.00 | 0.00 | 0.00 | 90 | 1009.6 |
| 20260509104754 | 21 | 239 | 4.8 | 8.0 | 0.00 | 0.00 | 0.00 | 90 | 1009.5 |
| 20260509104251 | 21 | 194 | 6.4 | 12.9 | 0.00 | 0.00 | 0.00 | 90 | 1009.6 |
| 20260509103749 | 21 | 250 | 4.8 | 12.9 | 0.00 | 0.00 | 0.00 | 89 | 1009.5 |
| 20260509103246 | 21 | 220 | 9.7 | 11.3 | 0.00 | 0.00 | 0.00 | 90 | 1009.7 |
| 20260509102744 | 21 | 272 | 4.8 | 8.0 | 0.00 | 0.00 | 0.00 | 90 | 1009.6 |
| 20260509102241 | 21 | 351 | 3.2 | 9.7 | 0.00 | 0.00 | 0.00 | 90 | 1009.9 |
| 20260509101737 | 21 | 314 | 4.8 | 8.0 | 0.00 | 0.00 | 0.00 | 90 | 1009.4 |
| 20260509101233 | 21 | 302 | 3.2 | 8.0 | 0.00 | 0.00 | 0.00 | 91 | 1009.3 |
| 20260509100730 | 21 | 346 | 8.0 | 12.9 | 0.00 | 0.00 | 0.00 | 91 | 1009.3 |
| 20260509100228 | 21 | 354 | 6.4 | 9.7 | 0.00 | 0.00 | 0.00 | 91 | 1009.3 |
| 20260509095719 | 21 | 359 | 3.2 | 9.7 | 0.00 | 0.00 | 0.00 | 92 | 1009.1 |
| 20260509095216 | 21 | 336 | 4.8 | 4.8 | 0.00 | 0.00 | 0.00 | 92 | 1009.0 |
| 20260509094713 | 21 | 343 | 1.6 | 4.8 | 0.00 | 0.00 | 0.00 | 92 | 1008.7 |
| 20260509094210 | 21 | 14 | 0.0 | 1.6 | 0.00 | 0.00 | 0.00 | 92 | 1008.5 |
| 20260509093708 | 21 | 21 | 6.4 | 9.7 | 0.00 | 0.00 | 0.00 | 92 | 1008.3 |
| 20260509093205 | 21 | 222 | 4.8 | 8.0 | 0.00 | 0.00 | 0.00 | 93 | 1008.2 |
| 20260509092703 | 20 | 304 | 3.2 | 9.7 | 0.00 | 0.00 | 0.00 | 93 | 1007.6 |
| 20260509092201 | 20 | 235 | 8.0 | 14.5 | 0.00 | 0.00 | 0.00 | 93 | 1007.5 |
| 20260509091659 | 20 | 202 | 6.4 | 12.9 | 0.00 | 0.00 | 0.00 | 93 | 1007.6 |
| 20260509091154 | 20 | 226 | 9.7 | 12.9 | 0.00 | 0.00 | 0.00 | 92 | 1007.2 |
| 20260509090653 | 20 | 203 | 8.0 | 12.9 | 0.00 | 0.00 | 0.00 | 92 | 1007.5 |
| 20260509090150 | 20 | 218 | 6.4 | 11.3 | 0.00 | 0.00 | 0.00 | 92 | 1007.6 |
| 20260509085647 | 21 | 177 | 8.0 | 16.1 | 0.00 | 0.00 | 0.00 | 92 | 1007.4 |
| 20260509085143 | 21 | 199 | 8.0 | 12.9 | 0.00 | 0.00 | 0.00 | 92 | 1007.2 |
| 20260509084641 | 21 | 135 | 8.0 | 12.9 | 0.00 | 0.00 | 0.00 | 91 | 1007.7 |
| 20260509084138 | 21 | 144 | 6.4 | 16.1 | 0.00 | 0.00 | 0.00 | 91 | 1008.0 |
| 20260509083635 | 21 | 175 | 4.8 | 12.9 | 0.00 | 0.00 | 0.00 | 91 | 1008.4 |
| 20260509083131 | 21 | 182 | 9.7 | 12.9 | 0.00 | 0.00 | 0.00 | 90 | 1008.7 |
| 20260509082629 | 21 | 155 | 6.4 | 12.9 | 0.00 | 0.00 | 0.00 | 90 | 1009.1 |
| 20260509082125 | 21 | 159 | 8.0 | 12.9 | 0.00 | 0.00 | 0.00 | 90 | 1009.3 |
| 20260509081622 | 21 | 173 | 6.4 | 9.7 | 0.00 | 0.00 | 0.00 | 89 | 1009.9 |
| 20260509081120 | 21 | 290 | 3.2 | 9.7 | 0.00 | 0.00 | 0.00 | 89 | 1009.9 |
| 20260509080618 | 21 | 265 | 4.8 | 9.7 | 0.00 | 0.00 | 0.00 | 89 | 1009.9 |
| 20260509080115 | 21 | 163 | 8.0 | 9.7 | 0.00 | 0.00 | 0.00 | 89 | 1010.0 |
| 20260509075613 | 21 | 167 | 3.2 | 8.0 | 0.00 | 0.00 | 0.00 | 88 | 1010.3 |
| 20260509075110 | 21 | 182 | 4.8 | 8.0 | 0.00 | 0.00 | 0.00 | 88 | 1010.5 |
| 20260509074607 | 21 | 220 | 6.4 | 9.7 | 0.00 | 0.00 | 0.00 | 88 | 1010.3 |
| 20260509074103 | 21 | 231 | 8.0 | 14.5 | 0.00 | 0.00 | 0.00 | 87 | 1010.5 |
| 20260509073601 | 22 | 244 | 8.0 | 11.3 | 0.00 | 0.00 | 0.00 | 87 | 1010.7 |
| 20260509073056 | 22 | 229 | 9.7 | 11.3 | 0.00 | 0.00 | 0.00 | 87 | 1010.7 |
| 20260509072553 | 22 | 264 | 11.3 | 17.7 | 0.00 | 0.00 | 0.00 | 87 | 1011.1 |
| 20260509072044 | 22 | 333 | 4.8 | 11.3 | 0.00 | 0.00 | 0.00 | 86 | 1011.1 |
| 20260509071541 | 22 | 290 | 8.0 | 22.5 | 0.00 | 0.00 | 0.00 | 86 | 1011.2 |
| 20260509071039 | 22 | 226 | 9.7 | 14.5 | 0.00 | 0.00 | 0.00 | 86 | 1011.4 |
| 20260509070536 | 22 | 226 | 11.3 | 16.1 | 0.00 | 0.00 | 0.00 | 86 | 1011.3 |
| 20260509070032 | 21 | 274 | 6.4 | 12.9 | 0.00 | 0.00 | 0.00 | 87 | 1011.2 |
| 20260509065527 | 21 | 247 | 4.8 | 9.7 | 0.00 | 0.00 | 0.00 | 87 | 1010.9 |
| 20260509065024 | 21 | 256 | 4.8 | 4.8 | 0.00 | 0.00 | 0.00 | 87 | 1010.8 |
| 20260509064521 | 21 | 258 | 4.8 | 8.0 | 0.00 | 0.00 | 0.00 | 86 | 1010.6 |
| 20260509064020 | 21 | 304 | 1.6 | 4.8 | 0.00 | 0.00 | 0.00 | 86 | 1010.6 |
| 20260509063514 | 22 | 216 | 6.4 | 8.0 | 0.00 | 0.00 | 0.00 | 86 | 1010.7 |
| 20260509063012 | 22 | 203 | 8.0 | 9.7 | 0.00 | 0.00 | 0.00 | 85 | 1011.1 |
| 20260509062509 | 22 | 238 | 4.8 | 8.0 | 0.00 | 0.00 | 0.00 | 85 | 1010.9 |
| 20260509062007 | 22 | 192 | 6.4 | 8.0 | 0.00 | 0.00 | 0.00 | 84 | 1010.8 |
| 20260509061504 | 22 | 144 | 6.4 | 9.7 | 0.00 | 0.00 | 0.00 | 84 | 1011.1 |
| 20260509061001 | 22 | 50 | 1.6 | 4.8 | 0.00 | 0.00 | 0.00 | 83 | 1011.4 |
| 20260509060458 | 22 | 314 | 3.2 | 3.2 | 0.00 | 0.00 | 0.00 | 83 | 1011.8 |
| 20260509055953 | 22 | 34 | 1.6 | 3.2 | 0.00 | 0.00 | 0.00 | 83 | 1011.4 |
| 20260509055449 | 22 | 3 | 1.6 | 1.6 | 0.00 | 0.00 | 0.00 | 84 | 1011.4 |
| 20260509054946 | 22 | 12 | 0.0 | 0.0 | 0.00 | 0.00 | 0.00 | 85 | 1011.5 |
| 20260509054442 | 22 | 11 | 1.6 | 3.2 | 0.00 | 0.00 | 0.00 | 85 | 1011.8 |
| 20260509053941 | 22 | 11 | 1.6 | 4.8 | 0.00 | 0.00 | 0.00 | 85 | 1011.5 |
| 20260509053438 | 22 | 5 | 1.6 | 3.2 | 0.00 | 0.00 | 0.00 | 85 | 1011.9 |
| 20260509052935 | 22 | 7 | 3.2 | 3.2 | 0.00 | 0.00 | 0.00 | 85 | 1011.6 |
| 20260509052433 | 22 | 359 | 0.0 | 0.0 | 0.00 | 0.00 | 0.00 | 85 | 1010.8 |
| 20260509051931 | 22 | 274 | 4.8 | 4.8 | 0.00 | 0.00 | 0.00 | 84 | 1011.1 |
| 20260509051428 | 22 | 306 | 1.6 | 3.2 | 0.00 | 0.00 | 0.00 | 84 | 1010.6 |
| 20260509050925 | 22 | 205 | 4.8 | 8.0 | 0.00 | 0.00 | 0.00 | 84 | 1010.4 |
| 20260509050422 | 22 | 206 | 4.8 | 8.0 | 0.00 | 0.00 | 0.00 | 83 | 1010.7 |
| 20260509045919 | 22 | 322 | 1.6 | 3.2 | 0.00 | 0.00 | 0.00 | 83 | 1010.7 |
| 20260509045415 | 22 | 358 | 1.6 | 3.2 | 0.00 | 0.00 | 0.00 | 82 | 1010.7 |
| 20260509044913 | 22 | 208 | 6.4 | 9.7 | 0.00 | 0.00 | 0.00 | 82 | 1010.4 |
| 20260509044410 | 22 | 93 | 3.2 | 8.0 | 0.00 | 0.00 | 0.00 | 82 | 1010.5 |
| 20260509043907 | 22 | 150 | 6.4 | 9.7 | 0.00 | 0.00 | 0.00 | 81 | 1010.5 |
| 20260509043403 | 22 | 60 | 6.4 | 9.7 | 0.00 | 0.00 | 0.00 | 81 | 1010.5 |
| 20260509042859 | 22 | 200 | 4.8 | 4.8 | 0.00 | 0.00 | 0.00 | 81 | 1010.7 |
| 20260509042356 | 22 | 47 | 3.2 | 4.8 | 0.00 | 0.00 | 0.00 | 80 | 1010.6 |
| 20260509041852 | 22 | 141 | 4.8 | 8.0 | 0.00 | 0.00 | 0.00 | 80 | 1010.9 |
| 20260509041349 | 22 | 52 | 3.2 | 3.2 | 0.00 | 0.00 | 0.00 | 81 | 1011.2 |
| 20260509040847 | 22 | 22 | 0.0 | 0.0 | 0.00 | 0.00 | 0.00 | 81 | 1011.3 |
| 20260509040345 | 22 | 22 | 0.0 | 3.2 | 0.00 | 0.00 | 0.00 | 81 | 1011.3 |
| 20260509035842 | 22 | 21 | 0.0 | 1.6 | 0.00 | 0.00 | 0.00 | 81 | 1011.3 |
| 20260509035339 | 22 | 18 | 0.0 | 4.8 | 0.00 | 0.00 | 0.00 | 81 | 1011.0 |
| 20260509034834 | 22 | 38 | 1.6 | 3.2 | 0.00 | 0.00 | 0.00 | 81 | 1010.7 |
| 20260509034333 | 22 | 98 | 4.8 | 4.8 | 0.00 | 0.00 | 0.00 | 80 | 1010.3 |
| 20260509033829 | 22 | 108 | 8.0 | 9.7 | 0.00 | 0.00 | 0.00 | 80 | 1010.2 |
| 20260509033327 | 22 | 62 | 4.8 | 8.0 | 0.00 | 0.00 | 0.00 | 80 | 1010.4 |
| 20260509032823 | 22 | 94 | 4.8 | 8.0 | 0.00 | 0.00 | 0.00 | 80 | 1010.7 |
| 20260509032320 | 22 | 97 | 3.2 | 8.0 | 0.00 | 0.00 | 0.00 | 80 | 1010.5 |
| 20260509031818 | 22 | 38 | 1.6 | 4.8 | 0.00 | 0.00 | 0.00 | 80 | 1010.5 |
| 20260509031315 | 22 | 52 | 3.2 | 8.0 | 0.00 | 0.00 | 0.00 | 80 | 1010.5 |
| 20260509030813 | 22 | 98 | 4.8 | 8.0 | 0.00 | 0.00 | 0.00 | 79 | 1010.3 |
| 20260509030311 | 22 | 146 | 8.0 | 12.9 | 0.00 | 0.00 | 0.00 | 79 | 1010.2 |
| 20260509025807 | 22 | 138 | 3.2 | 4.8 | 0.00 | 0.00 | 0.00 | 79 | 1010.1 |
| 20260509025306 | 22 | 100 | 3.2 | 9.7 | 0.00 | 0.00 | 0.00 | 79 | 1010.2 |
| 20260509024758 | 22 | 172 | 8.0 | 11.3 | 0.00 | 0.00 | 0.00 | 79 | 1010.2 |
| 20260509024255 | 22 | 203 | 6.4 | 9.7 | 0.00 | 0.00 | 0.00 | 79 | 1010.0 |
| 20260509023752 | 22 | 163 | 4.8 | 9.7 | 0.00 | 0.00 | 0.00 | 79 | 1010.0 |
| 20260509023249 | 22 | 158 | 3.2 | 9.7 | 0.00 | 0.00 | 0.00 | 79 | 1009.7 |
| 20260509022745 | 22 | 210 | 3.2 | 11.3 | 0.00 | 0.00 | 0.00 | 79 | 1009.7 |
| 20260509022243 | 22 | 127 | 8.0 | 12.9 | 0.00 | 0.00 | 0.00 | 78 | 1009.5 |
| 20260509021739 | 22 | 139 | 3.2 | 8.0 | 0.00 | 0.00 | 0.00 | 78 | 1009.4 |
| 20260509021237 | 22 | 126 | 4.8 | 8.0 | 0.00 | 0.00 | 0.00 | 78 | 1009.4 |
| 20260509020735 | 22 | 153 | 6.4 | 9.7 | 0.00 | 0.00 | 0.00 | 78 | 1009.4 |
| 20260509020232 | 22 | 183 | 4.8 | 8.0 | 0.00 | 0.00 | 0.00 | 77 | 1009.5 |
| 20260509015730 | 22 | 169 | 3.2 | 9.7 | 0.00 | 0.00 | 0.00 | 77 | 1009.5 |
| 20260509015228 | 22 | 167 | 4.8 | 8.0 | 0.00 | 0.00 | 0.00 | 77 | 1009.8 |
| 20260509014724 | 22 | 100 | 6.4 | 8.0 | 0.00 | 0.00 | 0.00 | 78 | 1009.4 |
| 20260509014221 | 22 | 141 | 6.4 | 9.7 | 0.00 | 0.00 | 0.00 | 77 | 1009.4 |
| 20260509013718 | 22 | 137 | 3.2 | 8.0 | 0.00 | 0.00 | 0.00 | 77 | 1009.8 |
| 20260509013213 | 22 | 183 | 3.2 | 8.0 | 0.00 | 0.00 | 0.00 | 77 | 1009.4 |
| 20260509012710 | 22 | 171 | 3.2 | 8.0 | 0.00 | 0.00 | 0.00 | 77 | 1009.7 |
| 20260509012207 | 22 | 198 | 4.8 | 8.0 | 0.00 | 0.00 | 0.00 | 77 | 1009.5 |
| 20260509011704 | 22 | 182 | 4.8 | 9.7 | 0.00 | 0.00 | 0.00 | 77 | 1009.5 |
| 20260509011202 | 22 | 6 | 1.6 | 3.2 | 0.00 | 0.00 | 0.00 | 77 | 1009.3 |
| 20260509010700 | 22 | 43 | 1.6 | 11.3 | 0.00 | 0.00 | 0.00 | 78 | 1009.0 |
| 20260509010155 | 22 | 136 | 8.0 | 8.0 | 0.00 | 0.00 | 0.00 | 77 | 1008.8 |
| 20260509005653 | 22 | 115 | 6.4 | 11.3 | 0.00 | 0.00 | 0.00 | 77 | 1008.7 |
| 20260509005150 | 22 | 47 | 4.8 | 8.0 | 0.00 | 0.00 | 0.00 | 77 | 1008.7 |
| 20260509004645 | 22 | 89 | 4.8 | 11.3 | 0.00 | 0.00 | 0.00 | 77 | 1008.6 |
| 20260509004143 | 22 | 87 | 4.8 | 9.7 | 0.00 | 0.00 | 0.00 | 77 | 1008.9 |
| 20260509003641 | 22 | 101 | 6.4 | 11.3 | 0.00 | 0.00 | 0.00 | 77 | 1008.6 |
| 20260509003138 | 22 | 71 | 8.0 | 9.7 | 0.00 | 0.00 | 0.00 | 76 | 1008.8 |
| 20260509002635 | 22 | 61 | 4.8 | 8.0 | 0.00 | 0.00 | 0.00 | 76 | 1008.8 |
| 20260509002132 | 22 | 64 | 4.8 | 8.0 | 0.00 | 0.00 | 0.00 | 76 | 1009.0 |
| 20260509001630 | 23 | 77 | 4.8 | 4.8 | 0.00 | 0.00 | 0.00 | 75 | 1008.8 |
| 20260509001126 | 23 | 140 | 8.0 | 11.3 | 0.00 | 0.00 | 0.00 | 74 | 1008.9 |
| 20260509000624 | 23 | 57 | 3.2 | 9.7 | 0.00 | 0.00 | 0.00 | 74 | 1008.8 |
| 20260509000120 | 22 | 39 | 4.8 | 9.7 | 0.00 | 0.00 | 0.00 | 75 | 1008.9 |
| 20260508235618 | 22 | 97 | 8.0 | 11.3 | 0.00 | 0.00 | 0.00 | 75 | 1009.0 |
| 20260508235114 | 22 | 153 | 6.4 | 9.7 | 0.00 | 0.00 | 0.00 | 75 | 1009.4 |
| 20260508234612 | 22 | 109 | 8.0 | 9.7 | 0.00 | 0.00 | 0.00 | 74 | 1009.4 |
| 20260508234108 | 23 | 215 | 6.4 | 12.9 | 0.00 | 0.00 | 0.00 | 74 | 1009.4 |
| 20260508233608 | 23 | 181 | 4.8 | 4.8 | 0.00 | 0.00 | 0.00 | 74 | 1009.3 |
| 20260508233105 | 22 | 77 | 3.2 | 8.0 | 0.00 | 0.00 | 0.00 | 75 | 1009.5 |
| 20260508232602 | 23 | 220 | 8.0 | 11.3 | 0.00 | 0.00 | 0.00 | 74 | 1009.3 |
| 20260508232058 | 23 | 109 | 4.8 | 11.3 | 0.00 | 0.00 | 0.00 | 74 | 1009.0 |
| 20260508231556 | 23 | 171 | 4.8 | 8.0 | 0.00 | 0.00 | 0.00 | 74 | 1009.2 |
| 20260508231053 | 23 | 127 | 8.0 | 11.3 | 0.00 | 0.00 | 0.00 | 73 | 1009.1 |
| 20260508230549 | 23 | 96 | 6.4 | 11.3 | 0.00 | 0.00 | 0.00 | 72 | 1009.1 |
| 20260508230046 | 22 | 38 | 1.6 | 9.7 | 0.00 | 0.00 | 0.00 | 73 | 1009.4 |
| 20260508225543 | 23 | 79 | 4.8 | 4.8 | 0.00 | 0.00 | 0.00 | 71 | 1009.3 |
| 20260508225040 | 23 | 115 | 9.7 | 16.1 | 0.00 | 0.00 | 0.00 | 72 | 1009.3 |
| 20260508224538 | 23 | 85 | 4.8 | 12.9 | 0.00 | 0.00 | 0.00 | 71 | 1009.2 |
| 20260508224035 | 23 | 3 | 1.6 | 9.7 | 0.00 | 0.00 | 0.00 | 69 | 1009.2 |
| 20260508223533 | 23 | 72 | 8.0 | 12.9 | 0.00 | 0.00 | 0.00 | 71 | 1009.3 |
| 20260508223030 | 23 | 208 | 6.4 | 9.7 | 0.00 | 0.00 | 0.00 | 70 | 1009.4 |
| 20260508222527 | 23 | 104 | 6.4 | 14.5 | 0.00 | 0.00 | 0.00 | 70 | 1009.5 |
| 20260508222024 | 23 | 130 | 6.4 | 14.5 | 0.00 | 0.00 | 0.00 | 69 | 1009.4 |
| 20260508221520 | 23 | 160 | 9.7 | 14.5 | 0.00 | 0.00 | 0.00 | 70 | 1009.5 |
| 20260508221016 | 22 | 203 | 8.0 | 12.9 | 0.00 | 0.00 | 0.00 | 69 | 1009.6 |
| 20260508220513 | 22 | 177 | 11.3 | 16.1 | 0.00 | 0.00 | 0.00 | 69 | 1009.4 |
| 20260508220009 | 22 | 178 | 8.0 | 20.9 | 0.00 | 0.00 | 0.00 | 70 | 1009.5 |
| 20260508215506 | 23 | 180 | 9.7 | 16.1 | 0.00 | 0.00 | 0.00 | 69 | 1009.6 |
| 20260508215003 | 22 | 149 | 4.8 | 16.1 | 0.00 | 0.00 | 0.00 | 69 | 1009.6 |
| 20260508214500 | 22 | 249 | 4.8 | 8.0 | 0.00 | 0.00 | 0.00 | 69 | 1009.7 |
| 20260508213956 | 23 | 198 | 11.3 | 17.7 | 0.00 | 0.00 | 0.00 | 69 | 1009.3 |
| 20260508213454 | 23 | 92 | 8.0 | 12.9 | 0.00 | 0.00 | 0.00 | 67 | 1009.7 |
| 20260508212949 | 22 | 160 | 11.3 | 17.7 | 0.00 | 0.00 | 0.00 | 70 | 1009.5 |
| 20260508212446 | 22 | 195 | 8.0 | 17.7 | 0.00 | 0.00 | 0.00 | 70 | 1009.6 |
| 20260508211942 | 22 | 203 | 4.8 | 14.5 | 0.00 | 0.00 | 0.00 | 72 | 1009.5 |
| 20260508211438 | 22 | 140 | 12.9 | 16.1 | 0.00 | 0.00 | 0.00 | 73 | 1009.4 |
| 20260508210935 | 21 | 172 | 12.9 | 17.7 | 0.00 | 0.00 | 0.00 | 75 | 1009.9 |
| 20260508210432 | 21 | 128 | 9.7 | 16.1 | 0.00 | 0.00 | 0.00 | 75 | 1009.3 |
| 20260508205928 | 21 | 63 | 3.2 | 9.7 | 0.00 | 0.00 | 0.00 | 74 | 1010.1 |
| 20260508205425 | 22 | 254 | 4.8 | 8.0 | 0.00 | 0.00 | 0.00 | 74 | 1010.1 |
| 20260508204921 | 22 | 145 | 8.0 | 12.9 | 0.00 | 0.00 | 0.00 | 72 | 1010.7 |
| 20260508204418 | 22 | 73 | 3.2 | 11.3 | 0.00 | 0.00 | 0.00 | 71 | 1010.6 |
| 20260508203908 | 22 | 129 | 4.8 | 9.7 | 0.00 | 0.00 | 0.00 | 70 | 1011.2 |
| 20260508203405 | 22 | 173 | 3.2 | 11.3 | 0.00 | 0.00 | 0.00 | 70 | 1011.0 |
| 20260508202901 | 22 | 190 | 8.0 | 11.3 | 0.00 | 0.00 | 0.00 | 70 | 1011.5 |
| 20260508202358 | 22 | 213 | 12.9 | 17.7 | 0.00 | 0.00 | 0.00 | 70 | 1011.4 |
| 20260508201855 | 22 | 221 | 9.7 | 12.9 | 0.00 | 0.00 | 0.00 | 70 | 1011.5 |
| 20260508201351 | 22 | 245 | 11.3 | 12.9 | 0.00 | 0.00 | 0.00 | 69 | 1011.4 |
| 20260508200848 | 22 | 195 | 3.2 | 9.7 | 0.00 | 0.00 | 0.00 | 69 | 1011.5 |
| 20260508200345 | 22 | 192 | 4.8 | 11.3 | 0.00 | 0.00 | 0.00 | 70 | 1011.4 |
| 20260508195840 | 22 | 142 | 4.8 | 12.9 | 0.00 | 0.00 | 0.00 | 69 | 1011.5 |
| 20260508195338 | 22 | 192 | 8.0 | 12.9 | 0.00 | 0.00 | 0.00 | 68 | 1011.4 |
| 20260508194834 | 23 | 238 | 8.0 | 11.3 | 0.00 | 0.00 | 0.00 | 68 | 1011.6 |
| 20260508194331 | 23 | 195 | 6.4 | 12.9 | 0.00 | 0.00 | 0.00 | 66 | 1011.3 |
| 20260508193828 | 23 | 81 | 4.8 | 9.7 | 0.00 | 0.00 | 0.00 | 66 | 1011.2 |
| 20260508193325 | 23 | 317 | 1.6 | 8.0 | 0.00 | 0.00 | 0.00 | 65 | 1011.3 |
| 20260508192820 | 23 | 230 | 4.8 | 11.3 | 0.00 | 0.00 | 0.00 | 66 | 1011.4 |
| 20260508192318 | 23 | 198 | 9.7 | 11.3 | 0.00 | 0.00 | 0.00 | 65 | 1011.4 |
| 20260508191815 | 23 | 195 | 6.4 | 14.5 | 0.00 | 0.00 | 0.00 | 67 | 1011.5 |
| 20260508191312 | 23 | 214 | 9.7 | 16.1 | 0.00 | 0.00 | 0.00 | 67 | 1011.9 |
| 20260508190804 | 23 | 203 | 8.0 | 20.9 | 0.00 | 0.00 | 0.00 | 67 | 1011.8 |
| 20260508190259 | 23 | 202 | 9.7 | 14.5 | 0.00 | 0.00 | 0.00 | 66 | 1011.6 |
| 20260508185756 | 23 | 163 | 12.9 | 22.5 | 0.00 | 0.00 | 0.00 | 67 | 1011.5 |
| 20260508185254 | 23 | 232 | 6.4 | 11.3 | 0.00 | 0.00 | 0.00 | 66 | 1011.8 |
| 20260508184750 | 23 | 221 | 4.8 | 12.9 | 0.00 | 0.00 | 0.00 | 65 | 1011.9 |
| 20260508184248 | 24 | 137 | 8.0 | 11.3 | 0.00 | 0.00 | 0.00 | 64 | 1011.6 |
| 20260508183745 | 24 | 84 | 4.8 | 9.7 | 0.00 | 0.00 | 0.00 | 63 | 1011.9 |
| 20260508183241 | 23 | 162 | 4.8 | 14.5 | 0.00 | 0.00 | 0.00 | 65 | 1012.2 |
| 20260508182737 | 23 | 196 | 4.8 | 11.3 | 0.00 | 0.00 | 0.00 | 64 | 1012.0 |
| 20260508182234 | 23 | 139 | 4.8 | 11.3 | 0.00 | 0.00 | 0.00 | 63 | 1012.2 |
| 20260508181730 | 23 | 90 | 8.0 | 12.9 | 0.00 | 0.00 | 0.00 | 62 | 1012.2 |
| 20260508181227 | 24 | 87 | 6.4 | 16.1 | 0.00 | 0.00 | 0.00 | 61 | 1012.3 |
| 20260508180723 | 24 | 45 | 3.2 | 14.5 | 0.00 | 0.00 | 0.00 | 64 | 1012.4 |
| 20260508180220 | 23 | 89 | 4.8 | 8.0 | 0.00 | 0.00 | 0.00 | 65 | 1012.5 |
| 20260508175717 | 23 | 122 | 6.4 | 12.9 | 0.00 | 0.00 | 0.00 | 65 | 1012.7 |
| 20260508175214 | 23 | 136 | 8.0 | 12.9 | 0.00 | 0.00 | 0.00 | 64 | 1012.6 |
| 20260508174712 | 23 | 205 | 6.4 | 9.7 | 0.00 | 0.00 | 0.00 | 64 | 1012.8 |
| 20260508174208 | 23 | 171 | 8.0 | 12.9 | 0.00 | 0.00 | 0.00 | 65 | 1012.6 |
| 20260508173704 | 23 | 130 | 9.7 | 12.9 | 0.00 | 0.00 | 0.00 | 65 | 1013.2 |
| 20260508173200 | 23 | 201 | 4.8 | 14.5 | 0.00 | 0.00 | 0.00 | 64 | 1013.0 |
| 20260508172658 | 22 | 193 | 9.7 | 12.9 | 0.00 | 0.00 | 0.00 | 67 | 1013.4 |
| 20260508172155 | 23 | 130 | 9.7 | 11.3 | 0.00 | 0.00 | 0.00 | 63 | 1013.2 |
| 20260508171651 | 22 | 75 | 4.8 | 9.7 | 0.00 | 0.00 | 0.00 | 67 | 1013.2 |
| 20260508171147 | 22 | 71 | 3.2 | 8.0 | 0.00 | 0.00 | 0.00 | 65 | 1013.1 |
| 20260508170645 | 21 | 142 | 6.4 | 9.7 | 0.00 | 0.00 | 0.00 | 67 | 1013.4 |
| 20260508170142 | 21 | 111 | 9.7 | 11.3 | 0.00 | 0.00 | 0.00 | 66 | 1013.3 |
| 20260508165639 | 21 | 258 | 4.8 | 12.9 | 0.00 | 0.00 | 0.00 | 68 | 1013.7 |
| 20260508165136 | 21 | 199 | 6.4 | 14.5 | 0.00 | 0.00 | 0.00 | 67 | 1013.9 |
| 20260508164633 | 21 | 48 | 4.8 | 11.3 | 0.00 | 0.00 | 0.00 | 67 | 1014.0 |
| 20260508164130 | 21 | 33 | 3.2 | 12.9 | 0.00 | 0.00 | 0.00 | 67 | 1014.2 |
| 20260508163627 | 22 | 160 | 9.7 | 12.9 | 0.00 | 0.00 | 0.00 | 65 | 1014.1 |
| 20260508163124 | 22 | 167 | 4.8 | 9.7 | 0.00 | 0.00 | 0.00 | 65 | 1014.2 |
| 20260508162614 | 22 | 105 | 6.4 | 11.3 | 0.00 | 0.00 | 0.00 | 65 | 1014.3 |
| 20260508162112 | 21 | 86 | 3.2 | 9.7 | 0.00 | 0.00 | 0.00 | 67 | 1014.2 |
| 20260508161608 | 21 | 208 | 4.8 | 14.5 | 0.00 | 0.00 | 0.00 | 68 | 1014.2 |
| 20260508161106 | 21 | 170 | 8.0 | 11.3 | 0.00 | 0.00 | 0.00 | 67 | 1014.3 |
| 20260508160604 | 21 | 138 | 4.8 | 9.7 | 0.00 | 0.00 | 0.00 | 68 | 1014.5 |
| 20260508155558 | 20 | 149 | 4.8 | 11.3 | 0.00 | 0.00 | 0.00 | 69 | 1014.6 |
| 20260508155055 | 20 | 213 | 9.7 | 11.3 | 0.00 | 0.00 | 0.00 | 69 | 1014.7 |
| 20260508154552 | 20 | 147 | 4.8 | 8.0 | 0.00 | 0.00 | 0.00 | 68 | 1014.6 |
| 20260508154049 | 20 | 163 | 6.4 | 9.7 | 0.00 | 0.00 | 0.00 | 67 | 1014.7 |
| 20260508153546 | 20 | 144 | 8.0 | 9.7 | 0.00 | 0.00 | 0.00 | 66 | 1014.8 |
| 20260508153042 | 20 | 168 | 4.8 | 8.0 | 0.00 | 0.00 | 0.00 | 68 | 1014.7 |
| 20260508152540 | 20 | 128 | 6.4 | 9.7 | 0.00 | 0.00 | 0.00 | 68 | 1015.0 |
| 20260508152034 | 20 | 135 | 4.8 | 8.0 | 0.00 | 0.00 | 0.00 | 68 | 1015.3 |
| 20260508151532 | 20 | 120 | 3.2 | 8.0 | 0.00 | 0.00 | 0.00 | 68 | 1015.0 |
| 20260508151028 | 20 | 50 | 1.6 | 8.0 | 0.00 | 0.00 | 0.00 | 69 | 1015.0 |
| 20260508150526 | 20 | 171 | 9.7 | 11.3 | 0.00 | 0.00 | 0.00 | 68 | 1015.0 |
| 20260508150021 | 20 | 51 | 6.4 | 12.9 | 0.00 | 0.00 | 0.00 | 68 | 1014.9 |
| 20260508145518 | 20 | 49 | 3.2 | 9.7 | 0.00 | 0.00 | 0.00 | 68 | 1014.9 |
| 20260508145014 | 20 | 129 | 6.4 | 11.3 | 0.00 | 0.00 | 0.00 | 68 | 1015.1 |
| 20260508144512 | 20 | 185 | 8.0 | 12.9 | 0.00 | 0.00 | 0.00 | 67 | 1015.0 |
| 20260508144009 | 19 | 55 | 8.0 | 9.7 | 0.00 | 0.00 | 0.00 | 68 | 1015.0 |
| 20260508143507 | 19 | 63 | 3.2 | 14.5 | 0.00 | 0.00 | 0.00 | 68 | 1015.1 |
| 20260508143003 | 19 | 140 | 8.0 | 12.9 | 0.00 | 0.00 | 0.00 | 69 | 1014.9 |
| 20260508142501 | 18 | 211 | 3.2 | 11.3 | 0.00 | 0.00 | 0.00 | 71 | 1015.1 |
| 20260508141956 | 18 | 132 | 8.0 | 12.9 | 0.00 | 0.00 | 0.00 | 71 | 1015.1 |
| 20260508141453 | 18 | 77 | 6.4 | 12.9 | 0.00 | 0.00 | 0.00 | 70 | 1015.3 |
| 20260508140952 | 18 | 88 | 6.4 | 12.9 | 0.00 | 0.00 | 0.00 | 70 | 1015.4 |
| 20260508140448 | 18 | 160 | 6.4 | 14.5 | 0.00 | 0.00 | 0.00 | 71 | 1015.3 |
| 20260508135943 | 19 | 127 | 6.4 | 9.7 | 0.00 | 0.00 | 0.00 | 70 | 1015.2 |
| 20260508135440 | 18 | 49 | 3.2 | 8.0 | 0.00 | 0.00 | 0.00 | 70 | 1015.3 |
| 20260508134937 | 18 | 161 | 8.0 | 11.3 | 0.00 | 0.00 | 0.00 | 71 | 1015.4 |
| 20260508134433 | 18 | 125 | 11.3 | 17.7 | 0.00 | 0.00 | 0.00 | 70 | 1015.5 |
| 20260508133930 | 18 | 52 | 3.2 | 9.7 | 0.00 | 0.00 | 0.00 | 71 | 1015.6 |
| 20260508133428 | 18 | 169 | 8.0 | 9.7 | 0.00 | 0.00 | 0.00 | 70 | 1015.3 |
| 20260508132924 | 18 | 40 | 1.6 | 8.0 | 0.00 | 0.00 | 0.00 | 71 | 1015.5 |
| 20260508132423 | 18 | 32 | 1.6 | 4.8 | 0.00 | 0.00 | 0.00 | 71 | 1015.2 |
| 20260508131919 | 18 | 41 | 3.2 | 8.0 | 0.00 | 0.00 | 0.00 | 73 | 1015.2 |
| 20260508131414 | 18 | 74 | 4.8 | 8.0 | 0.00 | 0.00 | 0.00 | 74 | 1015.2 |
| 20260508130912 | 18 | 43 | 1.6 | 4.8 | 0.00 | 0.00 | 0.00 | 75 | 1015.4 |
| 20260508130408 | 17 | 56 | 3.2 | 4.8 | 0.00 | 0.00 | 0.00 | 76 | 1015.3 |
| 20260508125904 | 17 | 26 | 3.2 | 4.8 | 0.00 | 0.00 | 0.00 | 77 | 1015.4 |
| 20260508125400 | 17 | 42 | 3.2 | 8.0 | 0.00 | 0.00 | 0.00 | 78 | 1015.6 |
| 20260508124858 | 17 | 29 | 1.6 | 4.8 | 0.00 | 0.00 | 0.00 | 78 | 1015.5 |
| 20260508124356 | 17 | 27 | 1.6 | 3.2 | 0.00 | 0.00 | 0.00 | 79 | 1015.6 |
| 20260508123854 | 17 | 31 | 0.0 | 4.8 | 0.00 | 0.00 | 0.00 | 81 | 1015.3 |
| 20260508123352 | 16 | 34 | 0.0 | 3.2 | 0.00 | 0.00 | 0.00 | 82 | 1015.2 |
| 20260508122848 | 16 | 37 | 1.6 | 4.8 | 0.00 | 0.00 | 0.00 | 83 | 1015.4 |
| 20260508122345 | 16 | 45 | 3.2 | 4.8 | 0.00 | 0.00 | 0.00 | 82 | 1015.3 |
| 20260508121842 | 16 | 31 | 0.0 | 1.6 | 0.00 | 0.00 | 0.00 | 83 | 1015.2 |
| 20260508121340 | 16 | 55 | 3.2 | 8.0 | 0.00 | 0.00 | 0.00 | 83 | 1015.3 |
| 20260508120837 | 16 | 31 | 1.6 | 3.2 | 0.00 | 0.00 | 0.00 | 84 | 1015.6 |
| 20260508120335 | 16 | 30 | 0.0 | 1.6 | 0.00 | 0.00 | 0.00 | 84 | 1015.4 |
| 20260508115832 | 16 | 29 | 1.6 | 1.6 | 0.00 | 0.00 | 0.00 | 84 | 1015.4 |
| 20260508115330 | 16 | 39 | 1.6 | 3.2 | 0.00 | 0.00 | 0.00 | 83 | 1015.4 |
| 20260508114826 | 16 | 71 | 4.8 | 4.8 | 0.00 | 0.00 | 0.00 | 83 | 1015.5 |
| 20260508114323 | 16 | 34 | 1.6 | 4.8 | 0.00 | 0.00 | 0.00 | 83 | 1015.6 |
| 20260508113820 | 16 | 31 | 0.0 | 3.2 | 0.00 | 0.00 | 0.00 | 82 | 1015.3 |
| 20260508113318 | 16 | 52 | 1.6 | 4.8 | 0.00 | 0.00 | 0.00 | 82 | 1015.5 |